Time;durP1;ratioP1;P1;durP2;ratioP2;P2;SDS_P1;SDS_P2;PMS_P1;PMS_P2;Temp;Humidity;BMP_temperature;BMP_pressure;BME280_temperature;BME280_humidity;BME280_pressure;Samples;Min_cycle;Max_cycle;Signal;HPM_P1;HPM_P2
2022/03/08 00:02:09;;;;;;;;;34.00;26.67;;;;;2.30;49.29;101682.44;5078362;27;45433;-71
2022/03/08 00:04:35;;;;;;;;;31.67;28.33;;;;;2.69;49.45;101749.31;5078379;27;45487;-71
2022/03/08 00:07:01;;;;;;;;;36.00;24.00;;;;;2.67;49.55;101738.84;5077627;27;45461;-71
2022/03/08 00:09:27;;;;;;;;;31.67;31.00;;;;;2.40;49.45;101697.44;5077811;27;45735;-72
2022/03/08 00:11:53;;;;;;;;;28.33;26.67;;;;;2.65;49.85;101735.34;5077788;27;45307;-72
2022/03/08 00:14:18;;;;;;;;;30.00;25.67;;;;;2.68;49.72;101752.75;5078115;27;45442;-72
2022/03/08 00:16:44;;;;;;;;;27.67;20.33;;;;;2.49;49.66;101720.19;5077941;28;45655;-72
2022/03/08 00:19:10;;;;;;;;;40.33;27.00;;;;;2.61;49.64;101738.69;5077987;28;45463;-72
2022/03/08 00:21:35;;;;;;;;;36.67;28.67;;;;;2.64;49.54;101753.50;5077795;27;45242;-73
2022/03/08 00:24:01;;;;;;;;;32.00;27.33;;;;;2.48;49.81;101734.00;5057709;28;45202;-72
2022/03/08 00:26:26;;;;;;;;;38.33;32.33;;;;;2.57;49.52;101742.03;5057259;28;45681;-72
2022/03/08 00:28:52;;;;;;;;;30.00;24.67;;;;;2.46;49.77;101731.38;5057325;28;45254;-73
2022/03/08 00:31:17;;;;;;;;;27.67;23.00;;;;;2.39;49.66;101725.13;5076253;28;45713;-73
2022/03/08 00:33:42;;;;;;;;;29.00;24.00;;;;;2.41;49.98;101726.06;5078136;27;45325;-73
2022/03/08 00:36:08;;;;;;;;;30.00;21.33;;;;;2.19;49.80;101692.53;5089374;27;46664;-73
2022/03/08 00:38:34;;;;;;;;;31.50;25.00;;;;;2.51;49.91;101744.50;5057119;28;45264;-73
2022/03/08 00:41:00;;;;;;;;;31.33;27.00;;;;;2.47;49.72;101742.66;5057245;28;45319;-72
2022/03/08 00:43:26;;;;;;;;;36.67;26.00;;;;;2.47;49.68;101740.94;5072521;28;45467;-72
2022/03/08 00:45:51;;;;;;;;;40.33;29.33;;;;;2.44;50.14;101746.94;5056331;28;45679;-73
2022/03/08 00:48:17;;;;;;;;;38.67;28.67;;;;;2.31;50.12;101724.06;5073598;28;45318;-72
2022/03/08 00:50:42;;;;;;;;;32.67;26.33;;;;;2.37;50.10;101739.81;5077559;28;45296;-73
2022/03/08 00:53:08;;;;;;;;;33.00;27.00;;;;;2.32;49.88;101730.13;5077878;28;45369;-73
2022/03/08 00:55:34;;;;;;;;;34.00;27.67;;;;;2.28;50.06;101728.28;5077039;27;47413;-73
2022/03/08 00:58:01;;;;;;;;;38.67;28.67;;;;;2.26;50.67;101734.31;5077075;27;45296;-73
2022/03/08 01:00:29;;;;;;;;;36.67;27.00;;;;;2.25;50.19;101729.97;5077134;27;45347;-73
2022/03/08 01:02:54;;;;;;;;;32.33;26.00;;;;;2.21;50.32;101722.06;5077269;27;45597;-73
2022/03/08 01:05:20;;;;;;;;;25.67;23.67;;;;;2.19;49.85;101727.22;5077113;28;45466;-72
2022/03/08 01:07:45;;;;;;;;;30.00;26.00;;;;;2.24;50.38;101733.41;5077091;27;45737;-72
2022/03/08 01:10:15;;;;;;;;;38.00;26.67;;;;;2.23;50.17;101730.75;5077471;28;45401;-72
2022/03/08 01:12:41;;;;;;;;;39.33;33.00;;;;;2.25;50.47;101736.88;5077578;27;45162;-72
2022/03/08 01:15:07;;;;;;;;;34.67;25.67;;;;;2.19;50.36;101726.31;5076996;27;45383;-72
2022/03/08 01:17:33;;;;;;;;;38.33;25.00;;;;;2.17;50.51;101721.06;5076825;27;45289;-72
2022/03/08 01:19:59;;;;;;;;;28.67;26.00;;;;;2.16;50.18;101718.44;5076839;27;45295;-73
2022/03/08 01:22:24;;;;;;;;;26.00;22.33;;;;;2.17;50.71;101730.59;5077270;27;45330;-73
2022/03/08 01:24:50;;;;;;;;;33.00;29.00;;;;;2.07;50.92;101717.34;5076786;27;45356;-73
2022/03/08 01:27:16;;;;;;;;;22.33;22.33;;;;;2.08;50.69;101716.50;5076236;27;45385;-73
2022/03/08 01:29:41;;;;;;;;;31.67;26.67;;;;;2.01;50.48;101696.38;5076946;27;45427;-74
2022/03/08 01:32:07;;;;;;;;;28.33;24.00;;;;;2.02;50.49;101708.56;5077235;27;45367;-72
2022/03/08 01:34:34;;;;;;;;;22.33;21.00;;;;;1.94;51.00;101685.78;5076526;27;47076;-72
2022/03/08 01:37:00;;;;;;;;;33.67;28.67;;;;;1.86;51.16;101685.56;5077007;27;45343;-72
2022/03/08 01:39:25;;;;;;;;;39.00;29.67;;;;;1.91;50.90;101695.25;5076467;28;45245;-72
2022/03/08 01:41:51;;;;;;;;;42.00;31.00;;;;;1.85;51.17;101686.41;5076971;28;45310;-72
2022/03/08 01:44:18;;;;;;;;;18.00;15.33;;;;;1.88;51.03;101708.16;5076120;27;47138;-72
2022/03/08 01:46:44;;;;;;;;;34.00;28.00;;;;;1.84;51.50;101684.66;5076611;27;45305;-72
2022/03/08 01:49:09;;;;;;;;;38.00;29.67;;;;;1.73;51.55;101667.06;5076854;27;45351;-72
2022/03/08 01:51:37;;;;;;;;;35.67;28.00;;;;;1.81;51.45;101682.84;5076645;28;45495;-73
2022/03/08 01:54:03;;;;;;;;;28.33;25.33;;;;;1.86;51.33;101690.75;5076594;27;46166;-73
2022/03/08 01:56:29;;;;;;;;;31.67;24.67;;;;;1.83;51.41;101694.16;5077713;27;45166;-73
2022/03/08 01:58:56;;;;;;;;;26.67;22.67;;;;;1.88;51.74;101702.09;5079815;27;45268;-73
2022/03/08 02:01:22;;;;;;;;;34.67;29.00;;;;;1.82;51.28;101692.41;5080680;27;45483;-73
2022/03/08 02:03:47;;;;;;;;;27.33;22.33;;;;;1.64;51.66;101671.09;5079638;27;46241;-72
2022/03/08 02:06:12;;;;;;;;;29.33;29.00;;;;;1.73;52.08;101697.34;5079891;28;45342;-73
2022/03/08 02:08:38;;;;;;;;;29.67;28.00;;;;;1.73;51.98;101699.94;5080063;27;45345;-73
2022/03/08 02:11:03;;;;;;;;;25.00;23.00;;;;;1.68;52.05;101689.41;5080317;27;45367;-73
2022/03/08 02:13:29;;;;;;;;;31.33;25.67;;;;;1.63;51.62;101679.75;5079215;27;45751;-73
2022/03/08 02:15:54;;;;;;;;;34.67;25.00;;;;;1.64;52.00;101690.16;5079497;28;45921;-73
2022/03/08 02:18:20;;;;;;;;;41.67;26.67;;;;;1.64;52.13;101692.75;5080331;27;45301;-73
2022/03/08 02:20:47;;;;;;;;;34.00;26.33;;;;;1.61;52.28;101692.66;5079748;27;45256;-73
2022/03/08 02:23:13;;;;;;;;;39.00;24.67;;;;;1.60;52.67;101687.41;5079606;28;46589;-73
2022/03/08 02:25:39;;;;;;;;;32.33;24.00;;;;;1.46;51.87;101664.53;5079558;27;45351;-73
2022/03/08 02:28:06;;;;;;;;;36.33;27.33;;;;;1.58;52.09;101679.59;5079155;27;45493;-72
2022/03/08 02:30:32;;;;;;;;;22.67;19.67;;;;;1.53;52.19;101670.81;5079339;27;45308;-72
2022/03/08 02:32:57;;;;;;;;;28.67;23.00;;;;;1.45;52.36;101665.38;5079538;27;46312;-72
2022/03/08 02:35:27;;;;;;;;;28.33;26.33;;;;;1.44;52.31;101668.81;5079314;27;45402;-72
2022/03/08 02:37:55;;;;;;;;;42.00;27.00;;;;;1.18;52.46;101621.34;5080440;27;45391;-73
2022/03/08 02:40:27;;;;;;;;;20.33;17.00;;;;;1.34;52.21;101646.91;5079817;27;45400;-73
2022/03/08 02:42:53;;;;;;;;;38.00;27.00;;;;;1.39;52.70;101654.81;5078971;27;46345;-72
2022/03/08 02:45:19;;;;;;;;;32.33;28.33;;;;;1.37;52.26;101649.56;5079039;27;45500;-73
2022/03/08 02:47:45;;;;;;;;;39.33;30.33;;;;;1.43;52.70;101666.19;5079412;27;45375;-72
2022/03/08 02:50:12;;;;;;;;;29.00;24.00;;;;;1.28;52.64;101653.59;5080014;27;45232;-72
2022/03/08 02:52:40;;;;;;;;;32.33;28.33;;;;;1.22;52.70;101641.34;5079009;27;46538;-72
2022/03/08 02:55:07;;;;;;;;;43.00;28.00;;;;;1.35;52.57;101656.44;5079060;27;45438;-73
2022/03/08 02:57:32;;;;;;;;;33.00;29.00;;;;;1.33;52.52;101654.63;5079283;27;45877;-72
2022/03/08 02:59:58;;;;;;;;;37.00;28.33;;;;;1.20;52.63;101633.50;5079150;27;45673;-72
2022/03/08 03:02:23;;;;;;;;;27.67;26.67;;;;;1.25;52.81;101650.91;5078915;27;45772;-72
2022/03/08 03:04:48;;;;;;;;;32.00;25.00;;;;;1.23;52.60;101637.91;5079033;27;45453;-72
2022/03/08 03:07:14;;;;;;;;;31.67;25.00;;;;;1.30;52.79;101646.75;5078747;28;45452;-72
2022/03/08 03:09:40;;;;;;;;;29.33;25.33;;;;;1.18;53.17;101629.13;5078880;27;45335;-72
2022/03/08 03:12:06;;;;;;;;;29.00;27.00;;;;;1.27;52.90;101639.75;5078506;27;45313;-72
2022/03/08 03:14:31;;;;;;;;;34.67;28.00;;;;;1.24;52.93;101639.69;5078681;27;45419;-73
2022/03/08 03:16:56;;;;;;;;;32.33;27.00;;;;;1.24;53.28;101636.22;5079141;27;45311;-73
2022/03/08 03:19:22;;;;;;;;;42.00;31.00;;;;;1.18;53.19;101630.00;5078793;28;45447;-73
2022/03/08 03:21:47;;;;;;;;;31.00;24.33;;;;;1.16;53.10;101629.09;5078326;27;45301;-74
2022/03/08 03:24:13;;;;;;;;;37.67;25.67;;;;;1.05;52.87;101607.13;5078713;28;45362;-73
2022/03/08 03:26:38;;;;;;;;;29.67;25.00;;;;;1.14;53.58;101615.16;5078612;28;45684;-73
2022/03/08 03:29:03;;;;;;;;;36.67;27.00;;;;;1.14;53.10;101609.97;5078643;27;45476;-75
2022/03/08 03:31:29;;;;;;;;;31.33;25.33;;;;;0.82;53.06;101557.16;5078515;27;45407;-72
2022/03/08 03:33:54;;;;;;;;;38.67;33.67;;;;;1.17;52.84;101616.97;5078621;28;45257;-73
2022/03/08 03:36:20;;;;;;;;;33.00;25.00;;;;;0.88;53.00;101572.03;5078725;27;45517;-73
2022/03/08 03:38:45;;;;;;;;;39.00;30.33;;;;;1.05;53.30;101607.13;5078748;27;45285;-74
2022/03/08 03:41:11;;;;;;;;;30.33;28.67;;;;;1.10;52.67;101615.03;5078281;27;45563;-75
2022/03/08 03:43:36;;;;;;;;;35.33;25.67;;;;;0.96;53.09;101580.91;5078105;28;45534;-75
2022/03/08 03:46:02;;;;;;;;;44.67;34.33;;;;;1.05;52.92;101601.94;5078424;27;45356;-74
2022/03/08 03:48:28;;;;;;;;;37.00;26.67;;;;;1.08;52.91;101606.34;5078568;27;45427;-74
2022/03/08 03:50:53;;;;;;;;;38.67;33.67;;;;;1.09;53.23;101608.06;5078149;27;46314;-74
2022/03/08 03:53:18;;;;;;;;;32.67;25.00;;;;;1.08;52.90;101603.75;5078365;27;45354;-74
2022/03/08 03:55:44;;;;;;;;;32.00;28.00;;;;;1.08;52.63;101603.75;5077827;28;45754;-73
2022/03/08 03:58:09;;;;;;;;;34.00;25.33;;;;;1.06;52.78;101597.63;5078752;28;45382;-73
2022/03/08 04:00:35;;;;;;;;;35.00;27.67;;;;;1.07;52.69;101601.97;5077651;28;46160;-74
2022/03/08 04:03:00;;;;;;;;;31.67;28.00;;;;;1.09;52.68;101605.50;5078086;27;45412;-73
2022/03/08 04:05:25;;;;;;;;;21.00;20.33;;;;;1.09;52.54;101603.78;5076795;28;45341;-74
2022/03/08 04:07:51;;;;;;;;;37.67;26.33;;;;;1.09;52.62;101608.06;5077420;27;45403;-73
2022/03/08 04:10:17;;;;;;;;;36.00;30.33;;;;;1.12;52.50;101605.56;5078144;27;46152;-73
2022/03/08 04:12:43;;;;;;;;;44.33;33.00;;;;;1.06;52.30;101593.34;5077900;27;45239;-73
2022/03/08 04:15:09;;;;;;;;;41.33;35.67;;;;;1.10;52.34;101610.72;5077836;27;45488;-74
2022/03/08 04:17:35;;;;;;;;;41.00;33.33;;;;;0.76;52.25;101550.06;5077370;27;45499;-73
2022/03/08 04:20:01;;;;;;;;;35.67;28.33;;;;;1.02;52.35;101604.44;5076560;27;45482;-73
2022/03/08 04:22:27;;;;;;;;;41.67;32.00;;;;;0.93;52.67;101583.41;5077724;27;45363;-74
2022/03/08 04:24:53;;;;;;;;;35.33;30.33;;;;;0.96;52.24;101580.91;5077921;28;45418;-74
2022/03/08 04:27:19;;;;;;;;;38.67;32.67;;;;;0.99;52.27;101592.25;5077936;27;45257;-73
2022/03/08 04:29:44;;;;;;;;;35.33;28.67;;;;;0.89;52.65;101574.66;5077317;28;45568;-75
2022/03/08 04:32:09;;;;;;;;;37.33;30.33;;;;;1.00;52.29;101585.34;5077678;28;45438;-72
2022/03/08 04:34:35;;;;;;;;;35.33;31.67;;;;;1.01;51.92;101590.56;5077602;28;45299;-73
2022/03/08 04:37:00;;;;;;;;;42.67;31.00;;;;;0.94;52.37;101573.06;5077940;27;45403;-72
2022/03/08 04:39:26;;;;;;;;;40.33;35.67;;;;;0.98;52.28;101577.53;5077604;27;47350;-74
2022/03/08 04:41:51;;;;;;;;;40.00;34.33;;;;;1.01;52.14;101587.13;5077691;27;45410;-71
2022/03/08 04:44:16;;;;;;;;;34.67;20.67;;;;;0.99;52.05;101583.59;5077287;27;45319;-72
2022/03/08 04:46:42;;;;;;;;;39.67;32.00;;;;;0.99;52.13;101578.41;5077376;27;45402;-73
2022/03/08 04:49:07;;;;;;;;;41.33;31.67;;;;;0.81;52.23;101558.00;5077488;27;46578;-72
2022/03/08 04:51:33;;;;;;;;;33.33;28.00;;;;;0.96;52.05;101583.50;5077467;27;45458;-72
2022/03/08 04:53:58;;;;;;;;;36.67;33.00;;;;;1.00;51.95;101593.13;5077329;27;45416;-72
2022/03/08 04:56:24;;;;;;;;;42.00;24.00;;;;;0.92;52.52;101574.75;5077486;28;45349;-72
2022/03/08 04:58:49;;;;;;;;;34.67;30.00;;;;;0.92;52.13;101579.94;5077220;27;46183;-72
2022/03/08 05:01:15;;;;;;;;;36.33;33.00;;;;;0.97;52.04;101582.66;5076824;27;45447;-72
2022/03/08 05:03:41;;;;;;;;;39.33;32.00;;;;;0.98;51.96;101587.03;5077165;27;45366;-72
2022/03/08 05:06:06;;;;;;;;;39.00;34.33;;;;;0.88;51.88;101564.25;5077503;27;45390;-71
2022/03/08 05:08:32;;;;;;;;;34.00;29.67;;;;;0.95;51.62;101576.56;5077008;28;47198;-72
2022/03/08 05:10:57;;;;;;;;;43.33;33.00;;;;;0.93;51.85;101581.72;5075058;28;45423;-72
2022/03/08 05:13:22;;;;;;;;;44.67;31.67;;;;;0.96;51.90;101576.63;5077090;28;45358;-72
2022/03/08 05:15:49;;;;;;;;;38.00;32.00;;;;;0.96;51.70;101579.22;5077453;28;45280;-72
2022/03/08 05:18:16;;;;;;;;;38.00;29.67;;;;;0.95;52.09;101574.84;5077082;27;47298;-72
2022/03/08 05:20:41;;;;;;;;;51.33;39.67;;;;;0.95;51.63;101573.97;5076859;27;45562;-73
2022/03/08 05:23:07;;;;;;;;;33.33;28.67;;;;;0.84;51.54;101552.88;5077358;27;45303;-72
2022/03/08 05:25:32;;;;;;;;;39.33;34.00;;;;;0.97;51.65;101578.34;5076923;27;45221;-71
2022/03/08 05:27:58;;;;;;;;;47.33;35.00;;;;;0.79;51.65;101542.38;5076909;28;46177;-71
2022/03/08 05:30:23;;;;;;;;;53.00;36.33;;;;;0.60;51.21;101515.03;5076682;27;45350;-72
2022/03/08 05:32:49;;;;;;;;;35.33;32.00;;;;;0.92;51.47;101550.56;5080008;27;45588;-72
2022/03/08 05:35:15;;;;;;;;;34.33;31.33;;;;;0.81;51.60;101538.16;5080553;27;45697;-71
2022/03/08 05:37:40;;;;;;;;;45.67;35.33;;;;;0.89;51.55;101551.34;5080256;27;46715;-71
2022/03/08 05:40:07;;;;;;;;;35.33;30.67;;;;;0.80;51.17;101527.72;5080455;27;45424;-72
2022/03/08 05:42:32;;;;;;;;;38.00;36.33;;;;;1.02;51.27;101558.63;5080524;27;45391;-71
2022/03/08 05:44:58;;;;;;;;;42.33;36.67;;;;;0.99;51.02;101547.31;5080070;27;45428;-72
2022/03/08 05:47:23;;;;;;;;;41.00;33.33;;;;;0.75;51.05;101511.16;5080612;27;46559;-73
2022/03/08 05:49:48;;;;;;;;;32.67;25.33;;;;;1.00;50.59;101547.34;5080110;27;45338;-72
2022/03/08 05:52:14;;;;;;;;;47.33;32.00;;;;;1.04;50.74;101551.75;5080479;27;45275;-72
2022/03/08 05:54:39;;;;;;;;;66.00;44.67;;;;;0.72;50.99;101498.97;5080415;27;45306;-72
2022/03/08 05:57:04;;;;;;;;;47.33;32.67;;;;;1.02;51.10;101550.84;5079933;28;45723;-71
2022/03/08 05:59:30;;;;;;;;;48.00;35.67;;;;;1.04;50.88;101554.34;5080078;27;45340;-71
2022/03/08 06:01:55;;;;;;;;;47.67;35.67;;;;;0.97;50.88;101536.00;5079520;27;45363;-71
2022/03/08 06:04:20;;;;;;;;;48.67;34.00;;;;;0.94;50.87;101533.31;5080554;27;45341;-71
2022/03/08 06:06:46;;;;;;;;;17.33;10.00;;;;;1.06;50.93;101554.44;5079564;27;45355;-71
2022/03/08 06:09:11;;;;;;;;;46.00;35.33;;;;;0.98;51.01;101541.22;5080029;28;45298;-71
2022/03/08 06:11:37;;;;;;;;;42.67;37.00;;;;;1.00;50.79;101552.53;5079987;27;45466;-71
2022/03/08 06:14:02;;;;;;;;;49.00;35.67;;;;;1.02;50.89;101553.44;5079802;27;45256;-71
2022/03/08 06:16:27;;;;;;;;;47.00;35.00;;;;;0.97;51.03;101538.59;5079309;28;45943;-71
2022/03/08 06:18:56;;;;;;;;;44.00;37.00;;;;;0.95;51.25;101538.53;5079538;28;45395;-71
2022/03/08 06:21:21;;;;;;;;;47.00;40.33;;;;;0.86;51.22;101520.13;5079657;28;45378;-71
2022/03/08 06:23:47;;;;;;;;;51.67;39.00;;;;;0.85;50.93;101518.38;5079798;27;45401;-70
2022/03/08 06:26:12;;;;;;;;;45.33;32.67;;;;;0.80;51.16;101512.16;5079125;28;45360;-71
2022/03/08 06:28:37;;;;;;;;;44.67;38.67;;;;;0.91;51.38;101517.66;5079706;28;45410;-71
2022/03/08 06:31:03;;;;;;;;;56.00;35.67;;;;;0.89;51.17;101515.03;5079022;27;45407;-71
2022/03/08 06:33:28;;;;;;;;;42.00;36.00;;;;;0.85;51.01;101505.41;5079769;28;45374;-71
2022/03/08 06:35:54;;;;;;;;;50.00;35.33;;;;;0.97;51.16;101525.63;5079349;28;46327;-71
2022/03/08 06:38:19;;;;;;;;;38.00;31.00;;;;;0.95;50.91;101524.72;5066698;27;46059;-73
2022/03/08 06:40:44;;;;;;;;;40.33;32.33;;;;;1.05;50.78;101524.13;5063521;28;45419;-71
2022/03/08 06:43:10;;;;;;;;;49.67;35.00;;;;;1.06;50.59;101519.81;5058068;28;45332;-70
2022/03/08 06:45:35;;;;;;;;;42.67;37.67;;;;;1.13;50.76;101524.34;5058594;28;46319;-73
2022/03/08 06:48:00;;;;;;;;;53.67;42.67;;;;;1.25;50.37;101523.81;5059125;28;45355;-73
2022/03/08 06:50:26;;;;;;;;;55.00;38.67;;;;;1.30;50.40;101530.88;5072184;28;45415;-73
2022/03/08 06:52:51;;;;;;;;;40.00;29.33;;;;;1.33;50.56;101523.19;5079755;28;45276;-73
2022/03/08 06:55:16;;;;;;;;;45.00;38.00;;;;;1.38;50.14;101515.56;5078715;28;46100;-70
2022/03/08 06:57:42;;;;;;;;;40.00;35.00;;;;;1.27;50.22;101488.44;5078903;28;45288;-72
2022/03/08 07:00:08;;;;;;;;;46.00;36.67;;;;;1.32;50.25;101494.59;5078936;28;45430;-71
2022/03/08 07:02:34;;;;;;;;;48.00;38.33;;;;;1.44;50.15;101522.59;5079239;27;45395;-71
2022/03/08 07:04:59;;;;;;;;;45.67;37.00;;;;;1.51;50.19;101529.72;5078873;27;45432;-72
2022/03/08 07:07:25;;;;;;;;;43.00;36.00;;;;;1.47;49.61;101517.53;5079010;27;45462;-72
2022/03/08 07:09:50;;;;;;;;;44.00;35.33;;;;;1.43;49.91;101521.72;5078928;28;45622;-72
2022/03/08 07:12:16;;;;;;;;;45.67;40.00;;;;;1.54;50.12;101534.97;5079512;27;45257;-72
2022/03/08 07:14:41;;;;;;;;;62.33;39.33;;;;;1.51;50.04;101519.34;5078502;27;47039;-72
2022/03/08 07:17:06;;;;;;;;;56.00;39.33;;;;;1.35;50.15;101476.53;5078991;27;45332;-72
2022/03/08 07:19:32;;;;;;;;;46.33;32.00;;;;;1.73;50.03;101542.44;5078903;27;45788;-72
2022/03/08 07:21:57;;;;;;;;;39.33;34.00;;;;;1.77;49.58;101533.00;5078979;28;45346;-72
2022/03/08 07:24:22;;;;;;;;;54.00;38.00;;;;;1.93;49.53;101526.47;5078399;28;46550;-73
2022/03/08 07:26:48;;;;;;;;;48.33;39.33;;;;;2.14;49.05;101525.28;5078402;28;45474;-72
2022/03/08 07:29:13;;;;;;;;;53.67;39.67;;;;;2.48;48.54;101547.72;5078298;27;45396;-73
2022/03/08 07:31:38;;;;;;;;;38.00;33.67;;;;;2.54;48.40;101549.59;5078170;28;45519;-73
2022/03/08 07:34:04;;;;;;;;;52.67;39.67;;;;;2.90;47.80;101533.94;5078168;28;46305;-72
2022/03/08 07:36:29;;;;;;;;;57.67;39.33;;;;;3.13;47.10;101551.78;5078431;27;45408;-72
2022/03/08 07:38:55;;;;;;;;;50.67;38.33;;;;;3.10;46.51;101487.53;5078553;28;45478;-72
2022/03/08 07:41:21;;;;;;;;;58.00;38.67;;;;;3.25;46.21;101545.94;5078489;27;45282;-72
2022/03/08 07:43:46;;;;;;;;;31.00;24.00;;;;;3.08;47.18;101551.69;5077996;27;47422;-72
2022/03/08 07:46:12;;;;;;;;;52.33;39.67;;;;;2.88;47.14;101535.63;5077775;27;45415;-72
2022/03/08 07:48:37;;;;;;;;;54.67;41.33;;;;;2.93;47.15;101533.13;5078407;27;46108;-71
2022/03/08 07:51:04;;;;;;;;;57.33;40.33;;;;;3.19;46.94;101549.28;5078323;27;45610;-73
2022/03/08 07:53:29;;;;;;;;;48.67;38.67;;;;;3.36;46.85;101548.78;5077846;27;45507;-72
2022/03/08 07:55:54;;;;;;;;;51.33;40.33;;;;;3.52;46.18;101548.22;5077310;27;45628;-72
2022/03/08 07:58:20;;;;;;;;;50.33;38.33;;;;;3.51;46.76;101550.78;5078221;27;45453;-72
2022/03/08 08:00:46;;;;;;;;;57.33;37.67;;;;;3.54;46.16;101517.00;5078318;27;45510;-72
2022/03/08 08:03:11;;;;;;;;;46.00;37.67;;;;;3.75;46.40;101542.56;5077377;27;45445;-73
2022/03/08 08:05:38;;;;;;;;;34.00;19.33;;;;;3.76;46.16;101534.78;5068615;28;45456;-72
2022/03/08 08:08:04;;;;;;;;;53.33;37.67;;;;;3.82;45.70;101542.69;5078112;27;45340;-73
2022/03/08 08:10:30;;;;;;;;;41.33;34.00;;;;;3.81;45.73;101535.72;5078188;27;45154;-71
2022/03/08 08:12:55;;;;;;;;;52.67;38.00;;;;;3.92;45.44;101556.78;5077772;27;46144;-68
2022/03/08 08:15:21;;;;;;;;;53.00;40.33;;;;;3.88;44.61;101556.66;5077450;27;45358;-68
2022/03/08 08:17:46;;;;;;;;;51.33;40.67;;;;;4.31;45.49;101554.78;5077880;28;45244;-72
2022/03/08 08:20:12;;;;;;;;;47.33;37.33;;;;;6.36;41.59;101545.91;5078216;27;45441;-74
2022/03/08 08:22:38;;;;;;;;;48.00;37.67;;;;;8.46;39.43;101544.00;5077720;27;45588;-73
2022/03/08 08:25:10;;;;;;;;;52.33;38.67;;;;;9.02;36.28;101542.16;5077000;27;45356;-72
2022/03/08 08:27:37;;;;;;;;;42.67;38.00;;;;;8.71;36.51;101550.97;5077211;27;45637;-72
2022/03/08 08:30:04;;;;;;;;;44.00;35.33;;;;;8.58;38.14;101543.13;5077829;28;45248;-73
2022/03/08 08:32:29;;;;;;;;;42.33;36.67;;;;;8.28;38.18;101545.75;5057007;28;47002;-72
2022/03/08 08:34:55;;;;;;;;;51.00;37.00;;;;;8.09;38.41;101533.47;5074425;28;45327;-73
2022/03/08 08:37:20;;;;;;;;;50.00;39.00;;;;;9.06;36.34;101538.59;5078008;27;45426;-73
2022/03/08 08:39:45;;;;;;;;;47.00;38.33;;;;;10.24;34.26;101530.88;5077402;27;45339;-72
2022/03/08 08:42:11;;;;;;;;;44.67;37.67;;;;;11.39;32.61;101541.06;5077295;28;45407;-73
2022/03/08 08:44:37;;;;;;;;;47.67;37.00;;;;;10.21;33.63;101534.41;5077362;27;45470;-71
2022/03/08 08:47:03;;;;;;;;;49.00;38.67;;;;;9.11;35.47;101542.09;5076948;27;45302;-72
2022/03/08 08:49:28;;;;;;;;;52.67;37.33;;;;;8.25;37.24;101537.88;5077010;27;45478;-73
2022/03/08 08:51:55;;;;;;;;;46.67;38.67;;;;;7.41;36.99;101491.47;5076692;27;45666;-72
2022/03/08 08:54:21;;;;;;;;;50.67;37.33;;;;;8.16;36.21;101546.63;5077614;27;45229;-71
2022/03/08 08:56:46;;;;;;;;;50.67;38.33;;;;;8.90;36.04;101532.53;5076327;27;45644;-71
2022/03/08 08:59:12;;;;;;;;;39.33;34.33;;;;;9.00;34.80;101523.75;5076533;27;45300;-71
2022/03/08 09:01:37;;;;;;;;;48.00;39.67;;;;;9.09;35.05;101496.59;5075222;27;47114;-71
2022/03/08 09:04:03;;;;;;;;;54.00;41.33;;;;;9.54;35.42;101549.78;5065751;28;45569;-71
2022/03/08 09:06:28;;;;;;;;;50.33;37.00;;;;;9.73;34.35;101528.63;5074744;27;45499;-71
2022/03/08 09:08:56;;;;;;;;;39.00;36.00;;;;;10.39;34.24;101540.44;5076274;27;45444;-71
2022/03/08 09:11:22;;;;;;;;;39.00;36.00;;;;;10.44;33.06;101538.63;5075929;27;46604;-71
2022/03/08 09:13:47;;;;;;;;;36.33;28.00;;;;;9.76;34.26;101537.38;5075619;27;46082;-71
2022/03/08 09:16:14;;;;;;;;;52.33;37.67;;;;;8.96;34.68;101529.00;5075929;27;45411;-71
2022/03/08 09:18:41;;;;;;;;;50.00;40.33;;;;;8.89;34.73;101526.41;5076029;27;45495;-72
2022/03/08 09:21:06;;;;;;;;;45.33;35.67;;;;;9.29;35.93;101533.25;5075066;27;46285;-71
2022/03/08 09:23:32;;;;;;;;;50.33;39.00;;;;;9.37;35.26;101541.13;5075399;27;45416;-71
2022/03/08 09:25:57;;;;;;;;;51.00;37.00;;;;;9.09;34.88;101537.72;5075602;27;45439;-70
2022/03/08 09:28:22;;;;;;;;;44.33;36.33;;;;;9.09;35.00;101524.59;5075559;27;45826;-71
2022/03/08 09:30:49;;;;;;;;;43.33;34.00;;;;;9.17;34.29;101539.44;5074448;28;46043;-70
2022/03/08 09:33:14;;;;;;;;;50.33;37.33;;;;;9.85;34.39;101536.44;5074338;28;45511;-71
2022/03/08 09:35:39;;;;;;;;;48.33;37.00;;;;;9.97;34.15;101519.69;5075165;28;45462;-72
2022/03/08 09:38:05;;;;;;;;;48.00;37.67;;;;;10.91;34.41;101521.44;5076293;27;45446;-72
2022/03/08 09:40:30;;;;;;;;;43.33;36.67;;;;;11.15;31.87;101529.94;5075631;27;46272;-71
2022/03/08 09:42:56;;;;;;;;;54.00;42.33;;;;;10.81;32.50;101519.81;5075452;27;45478;-72
2022/03/08 09:45:22;;;;;;;;;40.33;35.67;;;;;10.85;33.53;101523.28;5075640;27;45495;-72
2022/03/08 09:47:48;;;;;;;;;43.33;34.67;;;;;11.11;33.59;101526.47;5075398;27;45515;-72
2022/03/08 09:50:15;;;;;;;;;47.33;36.33;;;;;11.77;33.29;101522.06;5075678;27;47187;-71
2022/03/08 09:52:43;;;;;;;;;46.33;38.00;;;;;12.05;31.91;101518.16;5075250;28;45399;-71
2022/03/08 09:55:14;;;;;;;;;46.00;38.00;;;;;11.90;33.44;101514.81;5074985;27;45515;-71
2022/03/08 09:57:40;;;;;;;;;44.33;34.67;;;;;12.10;32.41;101517.16;5075654;27;45462;-71
2022/03/08 10:00:06;;;;;;;;;46.67;35.33;;;;;11.91;30.78;101518.31;5077566;27;46203;-73
2022/03/08 10:02:55;;;;;;;;;44.67;34.33;;;;;11.48;32.21;101520.72;5082178;27;45493;-71
2022/03/08 10:05:24;;;;;;;;;43.67;38.00;;;;;11.18;32.43;101521.13;5074992;27;45494;-71
2022/03/08 10:08:10;;;;;;;;;45.33;34.00;;;;;11.04;33.64;101523.94;5075458;27;45316;-71
2022/03/08 10:11:00;;;;;;;;;51.33;38.00;;;;;10.92;32.95;101504.75;5075140;27;46996;-71
2022/03/08 10:13:32;;;;;;;;;43.67;37.00;;;;;11.52;31.86;101511.00;5075304;27;45426;-72
2022/03/08 10:16:26;;;;;;;;;51.33;36.00;;;;;12.10;31.57;101513.66;5075173;27;45316;-70
2022/03/08 10:18:52;;;;;;;;;45.33;37.33;;;;;13.41;30.38;101512.00;5078208;27;45328;-70
2022/03/08 10:21:40;;;;;;;;;48.00;38.00;;;;;14.61;28.96;101494.97;5077963;27;45886;-71
2022/03/08 10:24:13;;;;;;;;;48.00;36.67;;;;;15.93;29.00;101506.97;5078393;27;45360;-71
2022/03/08 10:26:50;;;;;;;;;50.00;38.00;;;;;16.92;27.35;101501.78;5078278;27;45359;-72
2022/03/08 10:29:24;;;;;;;;;47.33;36.67;;;;;17.75;25.13;101503.00;5078623;27;45401;-71
2022/03/08 10:32:03;;;;;;;;;38.33;35.00;;;;;18.07;24.28;101491.03;5077829;28;46528;-71
2022/03/08 10:34:28;;;;;;;;;44.33;36.33;;;;;18.45;24.72;101492.97;5078086;27;45506;-71
2022/03/08 10:37:01;;;;;;;;;47.33;37.67;;;;;18.65;25.05;101500.09;5078518;27;45415;-72
2022/03/08 10:39:27;;;;;;;;;52.00;40.00;;;;;18.39;23.83;101507.44;5078567;27;45516;-71
2022/03/08 10:41:56;;;;;;;;;58.00;41.33;;;;;17.95;23.96;101515.53;5077645;27;46542;-72
2022/03/08 10:44:41;;;;;;;;;51.33;39.33;;;;;17.14;24.25;101519.59;5078097;27;45388;-72
2022/03/08 10:47:12;;;;;;;;;46.33;37.33;;;;;16.35;25.68;101523.25;5074689;28;45330;-73
2022/03/08 10:49:49;;;;;;;;;44.67;34.67;;;;;15.71;26.96;101520.91;5078059;27;45408;-70
2022/03/08 10:52:14;;;;;;;;;44.33;36.33;;;;;15.18;27.63;101503.06;5078114;27;47301;-70
2022/03/08 10:54:39;;;;;;;;;51.33;41.33;;;;;14.52;28.08;101460.75;5077951;28;45436;-69
2022/03/08 10:57:05;;;;;;;;;51.67;39.33;;;;;14.41;28.43;101507.84;5077656;27;45375;-69
2022/03/08 10:59:31;;;;;;;;;46.00;36.67;;;;;14.09;28.01;101504.25;5078319;27;45374;-70
2022/03/08 11:01:56;;;;;;;;;49.67;39.33;;;;;13.48;28.55;101488.94;5077995;27;46665;-70
2022/03/08 11:04:23;;;;;;;;;46.33;36.67;;;;;13.18;29.12;101507.19;5077841;27;45465;-70
2022/03/08 11:06:51;;;;;;;;;50.00;37.00;;;;;12.73;29.10;101501.09;5078089;27;45375;-70
2022/03/08 11:09:21;;;;;;;;;48.00;37.67;;;;;12.41;30.11;101487.56;5077652;27;45459;-72
2022/03/08 11:11:46;;;;;;;;;45.33;39.00;;;;;12.18;30.60;101488.88;5077587;28;45415;-73
2022/03/08 11:14:12;;;;;;;;;42.00;36.33;;;;;11.93;30.60;101509.53;5077724;27;45324;-73